createdAt,value
2018-03-21T00:02:20.409Z,1.19
2018-03-21T00:04:47.976Z,1.00
2018-03-21T00:07:15.517Z,1.02
2018-03-21T00:09:43.407Z,1.22
2018-03-21T00:12:11.089Z,1.01
2018-03-21T00:14:38.731Z,0.97
2018-03-21T00:17:06.416Z,0.92
2018-03-21T00:19:34.105Z,0.94
2018-03-21T00:22:01.882Z,1.06
2018-03-21T00:24:29.547Z,1.15
2018-03-21T00:26:57.409Z,0.96
2018-03-21T00:29:24.931Z,1.31
2018-03-21T00:31:52.568Z,1.17
2018-03-21T00:34:21.236Z,1.17
2018-03-21T00:36:48.839Z,1.11
2018-03-21T00:39:16.680Z,0.97
2018-03-21T00:41:44.940Z,0.93
2018-03-21T00:44:12.481Z,0.82
2018-03-21T00:46:40.250Z,0.89
2018-03-21T00:49:07.837Z,0.86
2018-03-21T00:51:35.581Z,0.94
2018-03-21T00:54:03.278Z,1.02
2018-03-21T00:56:31.641Z,0.82
2018-03-21T00:58:59.371Z,0.87
2018-03-21T01:01:26.940Z,0.96
2018-03-21T01:03:54.735Z,1.05
2018-03-21T01:06:22.551Z,0.97
2018-03-21T01:08:50.094Z,1.00
2018-03-21T01:11:17.620Z,1.09
2018-03-21T01:13:45.411Z,0.97
2018-03-21T01:16:13.630Z,1.05
2018-03-21T01:18:41.198Z,1.09
2018-03-21T01:21:09.060Z,0.96
2018-03-21T01:23:36.641Z,0.81
2018-03-21T01:26:04.359Z,0.80
2018-03-21T01:28:31.916Z,0.69
2018-03-21T01:30:59.601Z,0.73
2018-03-21T01:33:27.133Z,0.56
2018-03-21T01:35:54.721Z,0.53
2018-03-21T01:38:22.625Z,0.43
2018-03-21T01:40:50.355Z,0.24
2018-03-21T01:43:17.976Z,0.29
2018-03-21T01:45:45.636Z,0.14
2018-03-21T01:48:13.471Z,-0.14
2018-03-21T01:50:41.140Z,-0.07
2018-03-21T01:53:10.499Z,-0.27
2018-03-21T01:55:38.050Z,-0.18
2018-03-21T01:58:05.684Z,-0.19
2018-03-21T02:00:33.429Z,-0.36
2018-03-21T02:03:01.115Z,-0.48
2018-03-21T02:05:28.885Z,-0.44
2018-03-21T02:07:56.497Z,-0.45
2018-03-21T02:10:24.655Z,-0.23
2018-03-21T02:12:52.370Z,-0.29
2018-03-21T02:15:19.953Z,-0.45
2018-03-21T02:17:47.483Z,-0.49
2018-03-21T02:20:15.119Z,-0.36
2018-03-21T02:22:42.680Z,-0.44
2018-03-21T02:25:10.380Z,-0.57
2018-03-21T02:27:38.126Z,-0.80
2018-03-21T02:30:05.822Z,-0.60
2018-03-21T02:32:34.060Z,-0.44
2018-03-21T02:35:01.856Z,-0.87
2018-03-21T02:37:29.544Z,-0.98
2018-03-21T02:39:57.251Z,-0.94
2018-03-21T02:42:25.588Z,-1.17
2018-03-21T02:44:53.141Z,-1.30
2018-03-21T02:47:22.179Z,-1.39
2018-03-21T02:49:49.801Z,-1.50
2018-03-21T02:52:17.517Z,-1.58
2018-03-21T02:54:45.130Z,-1.69
2018-03-21T02:57:12.826Z,-1.77
2018-03-21T02:59:40.388Z,-1.83
2018-03-21T03:02:08.298Z,-1.95
2018-03-21T03:04:35.985Z,-1.97
2018-03-21T03:07:03.744Z,-2.08
2018-03-21T03:09:31.686Z,-2.17
2018-03-21T03:11:59.496Z,-2.17
2018-03-21T03:14:27.064Z,-2.32
2018-03-21T03:16:54.709Z,-2.37
2018-03-21T03:19:22.646Z,-2.32
2018-03-21T03:21:50.264Z,-2.36
2018-03-21T03:24:17.946Z,-2.39
2018-03-21T03:26:45.488Z,-2.47
2018-03-21T03:29:13.339Z,-2.62
2018-03-21T03:31:41.055Z,-2.58
2018-03-21T03:34:08.603Z,-2.64
2018-03-21T03:36:36.246Z,-2.52
2018-03-21T03:39:04.483Z,-2.68
2018-03-21T03:41:32.024Z,-2.71
2018-03-21T03:43:59.554Z,-2.69
2018-03-21T03:46:27.300Z,-2.83
2018-03-21T03:48:55.124Z,-2.39
2018-03-21T03:51:22.759Z,-2.37
2018-03-21T03:53:50.285Z,-2.28
2018-03-21T03:56:17.850Z,-2.17
2018-03-21T03:58:45.965Z,-2.12
2018-03-21T04:01:13.716Z,-2.21
2018-03-21T04:03:41.413Z,-2.50
2018-03-21T04:06:09.157Z,-2.48
2018-03-21T04:08:36.745Z,-2.50
2018-03-21T04:11:04.390Z,-2.38
2018-03-21T04:13:32.325Z,-2.36
2018-03-21T04:15:59.860Z,-2.40
2018-03-21T04:18:27.618Z,-2.46
2018-03-21T04:20:55.241Z,-2.54
2018-03-21T04:23:23.689Z,-2.61
2018-03-21T04:25:51.208Z,-2.37
2018-03-21T04:28:18.979Z,-2.47
2018-03-21T04:30:46.800Z,-2.48
2018-03-21T04:33:14.769Z,-2.59
2018-03-21T04:35:42.383Z,-2.59
2018-03-21T04:38:10.201Z,-2.70
2018-03-21T04:40:37.986Z,-2.74
2018-03-21T04:43:05.526Z,-2.86
2018-03-21T04:45:33.116Z,-2.88
2018-03-21T04:48:00.785Z,-3.02
2018-03-21T04:50:28.630Z,-2.99
2018-03-21T04:52:56.328Z,-2.99
2018-03-21T04:55:24.085Z,-3.15
2018-03-21T04:57:51.701Z,-3.09
2018-03-21T05:00:19.279Z,-3.19
2018-03-21T05:02:46.803Z,-3.35
2018-03-21T05:05:14.428Z,-3.42
2018-03-21T05:07:42.069Z,-3.55
2018-03-21T05:10:09.675Z,-3.68
2018-03-21T05:12:37.305Z,-3.66
2018-03-21T05:15:04.926Z,-3.36
2018-03-21T05:17:32.578Z,-3.25
2018-03-21T05:20:00.414Z,-3.14
2018-03-21T05:22:28.264Z,-3.41
2018-03-21T05:24:56.055Z,-3.53
2018-03-21T05:27:23.909Z,-3.46
2018-03-21T05:29:51.430Z,-3.45
2018-03-21T05:32:19.036Z,-3.70
2018-03-21T05:34:46.695Z,-3.61
2018-03-21T05:37:14.236Z,-3.49
2018-03-21T05:39:41.873Z,-3.55
2018-03-21T05:42:09.505Z,-3.34
2018-03-21T05:44:37.114Z,-3.32
2018-03-21T05:47:05.093Z,-3.06
2018-03-21T05:49:32.682Z,-3.26
2018-03-21T05:52:00.251Z,-3.25
2018-03-21T05:54:27.934Z,-3.05
2018-03-21T05:56:55.523Z,-2.90
2018-03-21T05:59:23.405Z,-3.36
2018-03-21T06:01:51.004Z,-3.42
2018-03-21T06:04:18.846Z,-3.24
2018-03-21T06:06:47.164Z,-3.20
2018-03-21T06:09:14.840Z,-2.94
2018-03-21T06:11:42.560Z,-2.59
2018-03-21T06:14:10.342Z,-2.32
2018-03-21T06:16:38.113Z,-2.18
2018-03-21T06:19:05.762Z,-1.85
2018-03-21T06:21:33.594Z,-1.85
2018-03-21T06:24:01.865Z,-1.55
2018-03-21T06:26:29.664Z,-1.10
2018-03-21T06:28:57.240Z,-1.01
2018-03-21T06:31:24.980Z,-0.95
2018-03-21T06:33:52.630Z,-0.37
2018-03-21T06:36:20.415Z,0.02
2018-03-21T06:38:48.073Z,-0.19
2018-03-21T06:41:15.828Z,-0.29
2018-03-21T06:43:43.424Z,-1.05
2018-03-21T06:46:10.984Z,-1.40
2018-03-21T06:48:38.745Z,-1.00
2018-03-21T06:51:07.268Z,-0.37
2018-03-21T06:53:34.946Z,0.20
2018-03-21T06:56:02.723Z,1.01
2018-03-21T06:58:30.464Z,1.60
2018-03-21T07:00:58.273Z,1.13
2018-03-21T07:03:25.995Z,0.96
2018-03-21T07:05:53.516Z,0.79
2018-03-21T07:08:21.332Z,1.33
2018-03-21T07:10:49.210Z,2.47
2018-03-21T07:13:16.943Z,3.08
2018-03-21T07:15:56.555Z,3.52
2018-03-21T07:18:24.241Z,3.80
2018-03-21T07:20:52.054Z,3.65
2018-03-21T07:23:19.715Z,3.42
2018-03-21T07:25:47.665Z,4.27
2018-03-21T07:28:15.293Z,4.69
2018-03-21T07:30:42.845Z,4.45
2018-03-21T07:33:10.599Z,5.33
2018-03-21T07:35:38.480Z,3.49
2018-03-21T07:38:06.441Z,4.60
2018-03-21T07:40:34.214Z,3.23
2018-03-21T07:43:02.140Z,4.81
2018-03-21T07:45:29.981Z,3.78
2018-03-21T07:47:57.560Z,3.07
2018-03-21T07:50:25.458Z,3.08
2018-03-21T07:52:53.185Z,3.61
2018-03-21T07:55:21.113Z,3.48
2018-03-21T07:57:48.640Z,3.92
2018-03-21T08:00:16.475Z,4.69
2018-03-21T08:02:44.164Z,4.70
2018-03-21T08:05:11.971Z,5.32
2018-03-21T08:07:39.725Z,4.14
2018-03-21T08:10:07.674Z,4.02
2018-03-21T08:12:35.361Z,5.15
2018-03-21T08:15:03.130Z,5.74
2018-03-21T08:17:30.732Z,5.74
2018-03-21T08:19:58.359Z,6.68
2018-03-21T08:22:26.068Z,6.22
2018-03-21T08:24:53.775Z,6.22
2018-03-21T08:27:21.552Z,6.37
2018-03-21T08:29:49.103Z,7.65
2018-03-21T08:32:16.635Z,7.27
2018-03-21T08:34:44.604Z,6.77
2018-03-21T08:37:12.523Z,5.45
2018-03-21T08:39:40.310Z,4.11
2018-03-21T08:42:08.219Z,3.78
2018-03-21T08:44:50.401Z,3.63
2018-03-21T08:47:18.295Z,3.14
2018-03-21T08:49:45.939Z,2.15
2018-03-21T08:52:13.569Z,1.83
2018-03-21T08:54:41.116Z,1.93
2018-03-21T08:57:08.659Z,1.83
2018-03-21T08:59:36.315Z,1.44
2018-03-21T09:02:03.880Z,1.26
2018-03-21T09:04:31.459Z,1.44
2018-03-21T09:06:59.105Z,1.74
2018-03-21T09:09:26.820Z,1.86
2018-03-21T09:11:54.750Z,2.09
2018-03-21T09:14:22.310Z,2.68
2018-03-21T09:16:49.919Z,5.06
2018-03-21T09:19:17.569Z,6.46
2018-03-21T09:21:45.203Z,5.93
2018-03-21T09:24:12.936Z,5.74
2018-03-21T09:26:40.655Z,4.47
2018-03-21T09:29:08.466Z,4.64
2018-03-21T09:31:35.993Z,4.13
2018-03-21T09:34:03.606Z,3.67
2018-03-21T09:36:31.444Z,4.46
2018-03-21T09:38:58.976Z,7.27
2018-03-21T09:41:26.506Z,7.75
2018-03-21T09:43:54.064Z,9.16
2018-03-21T09:46:21.664Z,9.35
2018-03-21T09:48:49.303Z,9.68
2018-03-21T09:51:16.855Z,9.39
2018-03-21T09:53:44.536Z,10.74
2018-03-21T09:56:12.499Z,9.57
2018-03-21T09:58:40.111Z,11.36
2018-03-21T10:01:07.898Z,12.02
2018-03-21T10:03:35.464Z,11.11
2018-03-21T10:06:03.112Z,10.29
2018-03-21T10:08:30.829Z,8.77
2018-03-21T10:10:58.355Z,11.47
2018-03-21T10:13:26.531Z,12.52
2018-03-21T10:15:54.195Z,9.79
2018-03-21T10:18:21.874Z,11.40
2018-03-21T10:20:49.516Z,11.48
2018-03-21T10:23:17.092Z,12.06
2018-03-21T10:25:44.859Z,13.48
2018-03-21T10:28:12.457Z,14.83
2018-03-21T10:30:40.069Z,16.80
2018-03-21T10:33:07.612Z,16.86
2018-03-21T10:35:35.289Z,16.34
2018-03-21T10:38:02.939Z,12.38
2018-03-21T10:40:30.488Z,11.19
2018-03-21T10:42:58.314Z,12.10
2018-03-21T10:45:26.013Z,13.40
2018-03-21T10:47:53.839Z,16.51
2018-03-21T10:50:21.695Z,19.10
2018-03-21T10:52:49.290Z,20.82
2018-03-21T10:55:16.862Z,17.74
2018-03-21T10:57:44.771Z,16.74
2018-03-21T11:00:12.465Z,14.46
2018-03-21T11:02:46.139Z,14.55
2018-03-21T11:05:21.015Z,15.82
2018-03-21T11:07:48.540Z,14.14
2018-03-21T11:10:16.120Z,14.34
2018-03-21T11:12:43.780Z,13.10
2018-03-21T11:15:11.814Z,13.54
2018-03-21T11:17:39.613Z,11.97
2018-03-21T11:20:07.216Z,11.98
2018-03-21T11:22:34.800Z,15.64
2018-03-21T11:25:02.365Z,17.87
2018-03-21T11:27:29.909Z,15.11
2018-03-21T11:29:57.626Z,15.83
2018-03-21T11:32:26.241Z,17.34
2018-03-21T11:34:54.083Z,17.27
2018-03-21T11:37:21.644Z,19.46
2018-03-21T11:39:49.508Z,20.93
2018-03-21T11:42:26.282Z,21.16
2018-03-21T11:44:53.907Z,22.52
2018-03-21T11:47:21.564Z,18.86
2018-03-21T11:49:49.161Z,19.80
2018-03-21T11:52:17.081Z,16.23
2018-03-21T11:54:46.650Z,16.95
2018-03-21T11:57:14.363Z,19.05
2018-03-21T11:59:41.930Z,20.02
2018-03-21T12:02:09.461Z,20.44
2018-03-21T12:04:37.937Z,16.56
2018-03-21T12:07:05.651Z,16.86
2018-03-21T12:09:33.178Z,15.22
2018-03-21T12:12:01.016Z,17.06
2018-03-21T12:14:28.685Z,19.48
2018-03-21T12:16:56.370Z,19.86
2018-03-21T12:19:24.031Z,21.04
2018-03-21T12:21:51.575Z,20.35
2018-03-21T12:24:19.271Z,18.69
2018-03-21T12:26:46.843Z,18.94
2018-03-21T12:29:14.993Z,18.48
2018-03-21T12:31:42.592Z,17.94
2018-03-21T12:34:10.464Z,16.68
2018-03-21T12:36:38.152Z,18.20
2018-03-21T12:39:05.740Z,18.65
2018-03-21T12:41:33.433Z,19.12
2018-03-21T12:44:01.460Z,21.93
2018-03-21T12:46:28.999Z,22.47
2018-03-21T12:48:56.804Z,22.52
2018-03-21T12:51:24.664Z,21.04
2018-03-21T12:53:52.274Z,19.03
2018-03-21T12:56:20.131Z,18.66
2018-03-21T12:58:47.609Z,15.57
2018-03-21T13:01:15.193Z,12.66
2018-03-21T13:03:42.805Z,11.58
2018-03-21T13:06:10.490Z,10.01
2018-03-21T13:08:38.323Z,13.54
2018-03-21T13:11:06.850Z,14.99
2018-03-21T13:13:34.471Z,17.43
2018-03-21T13:16:02.092Z,17.63
2018-03-21T13:18:29.644Z,20.40
2018-03-21T13:20:58.390Z,21.42
2018-03-21T13:23:25.928Z,22.59
2018-03-21T13:25:53.805Z,22.89
2018-03-21T13:28:21.429Z,22.64
2018-03-21T13:30:49.210Z,24.47
2018-03-21T13:33:17.106Z,22.12
2018-03-21T13:35:44.638Z,23.71
2018-03-21T13:38:12.242Z,23.78
2018-03-21T13:40:40.003Z,22.99
2018-03-21T13:43:07.605Z,24.43
2018-03-21T13:45:35.250Z,25.26
2018-03-21T13:48:02.889Z,24.53
2018-03-21T13:50:31.240Z,19.76
2018-03-21T13:52:58.934Z,16.31
2018-03-21T13:55:26.883Z,14.93
2018-03-21T13:57:54.596Z,18.25
2018-03-21T14:00:22.228Z,17.88
2018-03-21T14:02:49.789Z,19.75
2018-03-21T14:05:17.643Z,17.14
2018-03-21T14:07:45.824Z,16.94
2018-03-21T14:10:13.400Z,17.93
2018-03-21T14:12:40.939Z,17.55
2018-03-21T14:15:08.481Z,17.76
2018-03-21T14:17:36.148Z,16.60
2018-03-21T14:20:03.763Z,19.23
2018-03-21T14:22:31.403Z,20.79
2018-03-21T14:24:59.634Z,20.69
2018-03-21T14:27:27.239Z,20.25
2018-03-21T14:29:54.935Z,18.09
2018-03-21T14:32:22.675Z,17.20
2018-03-21T14:34:50.380Z,14.95
2018-03-21T14:37:19.714Z,14.86
2018-03-21T14:39:47.484Z,14.63
2018-03-21T14:42:16.760Z,15.55
2018-03-21T14:44:44.384Z,12.55
2018-03-21T14:47:11.962Z,11.09
2018-03-21T14:49:39.583Z,12.00
2018-03-21T14:52:07.258Z,11.00
2018-03-21T14:54:35.013Z,10.62
2018-03-21T14:57:02.704Z,9.59
2018-03-21T14:59:30.315Z,8.87
2018-03-21T15:01:58.005Z,8.46
2018-03-21T15:04:25.526Z,8.27
2018-03-21T15:06:54.087Z,8.67
2018-03-21T15:09:21.732Z,8.46
2018-03-21T15:11:49.524Z,8.11
2018-03-21T15:14:17.679Z,8.03
2018-03-21T15:16:45.505Z,7.73
2018-03-21T15:19:13.110Z,7.44
2018-03-21T15:21:41.491Z,7.47
2018-03-21T15:24:09.313Z,6.99
2018-03-21T15:26:36.854Z,6.61
2018-03-21T15:29:04.605Z,6.74
2018-03-21T15:31:32.196Z,6.88
2018-03-21T15:33:59.905Z,6.77
2018-03-21T15:36:27.521Z,6.75
2018-03-21T15:38:55.233Z,6.70
2018-03-21T15:41:23.053Z,6.79
2018-03-21T15:43:50.604Z,6.53
2018-03-21T15:46:18.463Z,6.66
2018-03-21T15:48:46.020Z,6.58
2018-03-21T15:51:13.624Z,6.33
2018-03-21T15:53:41.189Z,6.37
2018-03-21T15:56:08.836Z,6.58
2018-03-21T15:58:36.384Z,6.60
2018-03-21T16:01:04.208Z,6.41
2018-03-21T16:03:31.749Z,6.38
2018-03-21T16:05:59.635Z,6.10
2018-03-21T16:08:27.235Z,6.08
2018-03-21T16:10:55.014Z,6.05
2018-03-21T16:13:22.810Z,6.10
2018-03-21T16:15:50.413Z,6.06
2018-03-21T16:18:17.939Z,6.03
2018-03-21T16:20:45.630Z,5.92
2018-03-21T16:23:13.334Z,6.02
2018-03-21T16:25:41.070Z,5.91
2018-03-21T16:28:08.730Z,5.83
2018-03-21T16:30:36.706Z,5.69
2018-03-21T16:33:04.298Z,5.52
2018-03-21T16:35:32.178Z,5.54
2018-03-21T16:37:59.956Z,5.61
2018-03-21T16:40:28.372Z,5.60
2018-03-21T16:42:56.101Z,5.42
2018-03-21T16:45:23.841Z,5.38
2018-03-21T16:47:51.448Z,5.20
2018-03-21T16:50:19.105Z,5.19
2018-03-21T16:52:46.836Z,5.05
2018-03-21T16:55:14.444Z,4.96
2018-03-21T16:57:42.239Z,4.93
2018-03-21T17:00:09.770Z,4.98
2018-03-21T17:02:37.410Z,5.01
2018-03-21T17:05:05.117Z,4.90
2018-03-21T17:07:33.172Z,4.80
2018-03-21T17:10:00.734Z,4.59
2018-03-21T17:12:29.144Z,4.57
2018-03-21T17:14:56.745Z,4.59
2018-03-21T17:17:24.666Z,4.39
2018-03-21T17:19:52.381Z,4.42
2018-03-21T17:22:20.042Z,4.13
2018-03-21T17:24:47.781Z,4.10
2018-03-21T17:27:15.458Z,3.93
2018-03-21T17:29:43.104Z,4.09
2018-03-21T17:32:10.802Z,3.67
2018-03-21T17:34:38.450Z,3.57
2018-03-21T17:37:06.094Z,3.36
2018-03-21T17:39:33.779Z,3.16
2018-03-21T17:42:01.396Z,3.13
2018-03-21T17:44:29.009Z,3.20
2018-03-21T17:46:56.662Z,2.79
2018-03-21T17:49:24.189Z,2.66
2018-03-21T17:51:52.076Z,2.72
2018-03-21T17:54:19.851Z,2.68
2018-03-21T17:56:47.465Z,2.31
2018-03-21T17:59:15.142Z,2.13
2018-03-21T18:01:43.159Z,2.05
2018-03-21T18:04:11.071Z,1.96
2018-03-21T18:06:38.719Z,1.92
2018-03-21T18:09:06.254Z,1.94
2018-03-21T18:11:34.765Z,1.60
2018-03-21T18:14:02.455Z,1.63
2018-03-21T18:16:30.180Z,1.35
2018-03-21T18:18:57.732Z,1.14
2018-03-21T18:21:25.883Z,1.15
2018-03-21T18:23:53.463Z,1.42
2018-03-21T18:26:21.464Z,1.51
2018-03-21T18:28:49.233Z,1.42
2018-03-21T18:31:17.078Z,1.38
2018-03-21T18:33:44.653Z,1.31
2018-03-21T18:36:12.404Z,0.69
2018-03-21T18:38:40.384Z,0.80
2018-03-21T18:41:07.988Z,0.16
2018-03-21T18:43:35.824Z,-0.12
2018-03-21T18:46:03.509Z,0.24
2018-03-21T18:48:31.112Z,0.39
2018-03-21T18:50:58.937Z,-0.37
2018-03-21T18:53:27.368Z,-0.63
2018-03-21T18:55:56.780Z,-0.17
2018-03-21T18:58:24.585Z,-0.24
2018-03-21T19:00:52.397Z,-0.28
2018-03-21T19:03:20.205Z,-0.27
2018-03-21T19:05:47.932Z,-0.35
2018-03-21T19:08:15.743Z,-0.54
2018-03-21T19:10:43.639Z,-0.89
2018-03-21T19:13:11.221Z,-0.95
2018-03-21T19:15:39.738Z,-0.78
2018-03-21T19:18:07.418Z,-0.93
2018-03-21T19:20:35.269Z,-1.50
2018-03-21T19:23:03.088Z,-1.59
2018-03-21T19:25:30.943Z,-1.57
2018-03-21T19:27:58.657Z,-1.46
2018-03-21T19:30:27.194Z,-1.18
2018-03-21T19:32:54.848Z,-1.38
2018-03-21T19:35:22.584Z,-1.61
2018-03-21T19:37:50.166Z,-2.10
2018-03-21T19:40:18.680Z,-1.82
2018-03-21T19:42:46.404Z,-1.74
2018-03-21T19:47:41.125Z,-1.50
2018-03-21T19:50:08.839Z,-1.59
2018-03-21T19:52:36.606Z,-1.99
2018-03-21T19:55:04.144Z,-1.87
2018-03-21T19:57:31.812Z,-1.84
2018-03-21T19:59:59.674Z,-2.36
2018-03-21T20:02:27.390Z,-2.42
2018-03-21T20:04:55.181Z,-2.45
2018-03-21T20:07:22.989Z,-2.55
2018-03-21T20:09:50.659Z,-2.41
2018-03-21T20:12:18.448Z,-2.49
2018-03-21T20:14:46.709Z,-2.34
2018-03-21T20:17:15.033Z,-2.51
2018-03-21T20:19:42.793Z,-2.34
2018-03-21T20:22:11.015Z,-2.03
2018-03-21T20:24:38.560Z,-1.95
2018-03-21T20:27:06.358Z,-1.84
2018-03-21T20:29:34.113Z,-1.79
2018-03-21T20:32:01.764Z,-2.22
2018-03-21T20:34:29.335Z,-2.39
2018-03-21T20:36:57.174Z,-2.15
2018-03-21T20:39:24.864Z,-2.29
2018-03-21T20:41:52.695Z,-2.77
2018-03-21T20:44:20.443Z,-2.75
2018-03-21T20:46:48.238Z,-2.66
2018-03-21T20:49:15.904Z,-2.74
2018-03-21T20:51:43.464Z,-2.27
2018-03-21T20:54:11.218Z,-2.62
2018-03-21T20:56:38.784Z,-2.74
2018-03-21T20:59:06.423Z,-2.73
2018-03-21T21:01:34.185Z,-2.55
2018-03-21T21:04:02.144Z,-2.54
2018-03-21T21:06:29.664Z,-3.21
2018-03-21T21:08:57.458Z,-3.13
2018-03-21T21:11:25.129Z,-2.56
2018-03-21T21:13:52.914Z,-2.27
2018-03-21T21:16:20.490Z,-2.50
2018-03-21T21:18:48.174Z,-2.82
2018-03-21T21:21:15.760Z,-2.88
2018-03-21T21:23:43.316Z,-2.77
2018-03-21T21:26:11.020Z,-3.05
2018-03-21T21:28:38.783Z,-3.21
2018-03-21T21:31:06.675Z,-3.12
2018-03-21T21:33:34.500Z,-3.22
2018-03-21T21:36:02.219Z,-3.17
2018-03-21T21:38:30.022Z,-2.98
2018-03-21T21:40:57.564Z,-3.05
2018-03-21T21:43:25.246Z,-3.07
2018-03-21T21:45:53.132Z,-2.82
2018-03-21T21:48:20.735Z,-2.59
2018-03-21T21:50:48.315Z,-2.75
2018-03-21T21:53:15.890Z,-3.08
2018-03-21T21:55:43.558Z,-3.62
2018-03-21T21:58:11.572Z,-3.55
2018-03-21T22:00:39.681Z,-3.52
2018-03-21T22:03:07.675Z,-3.27
2018-03-21T22:05:35.242Z,-3.54
2018-03-21T22:08:02.985Z,-3.56
2018-03-21T22:10:30.628Z,-3.45
2018-03-21T22:12:58.441Z,-3.42
2018-03-21T22:15:26.063Z,-3.69
2018-03-21T22:17:53.608Z,-4.09
2018-03-21T22:20:21.433Z,-4.17
2018-03-21T22:22:49.100Z,-4.21
2018-03-21T22:25:16.765Z,-4.20
2018-03-21T22:27:44.570Z,-3.78
2018-03-21T22:30:12.304Z,-3.87
2018-03-21T22:32:40.073Z,-3.39
2018-03-21T22:35:08.029Z,-3.53
2018-03-21T22:37:35.679Z,-3.65
2018-03-21T22:40:03.581Z,-3.53
2018-03-21T22:42:31.244Z,-3.60
2018-03-21T22:44:58.879Z,-3.71
2018-03-21T22:47:26.568Z,-3.74
2018-03-21T22:49:54.263Z,-3.80
2018-03-21T22:52:21.794Z,-3.88
2018-03-21T22:54:49.500Z,-3.85
2018-03-21T22:57:17.152Z,-3.80
2018-03-21T22:59:44.894Z,-3.93
2018-03-21T23:02:12.593Z,-3.39
2018-03-21T23:04:40.189Z,-3.49
2018-03-21T23:07:07.834Z,-3.73
2018-03-21T23:09:35.390Z,-3.49
2018-03-21T23:12:03.137Z,-4.25
2018-03-21T23:14:30.855Z,-4.30
2018-03-21T23:16:58.398Z,-4.18
2018-03-21T23:19:26.004Z,-4.01
2018-03-21T23:21:53.711Z,-4.07
2018-03-21T23:24:21.648Z,-4.08
2018-03-21T23:26:49.200Z,-4.25
2018-03-21T23:29:16.779Z,-3.93
2018-03-21T23:31:44.474Z,-3.85
2018-03-21T23:34:12.269Z,-4.02
2018-03-21T23:36:40.243Z,-4.34
2018-03-21T23:39:08.024Z,-4.97
2018-03-21T23:41:35.586Z,-5.24
2018-03-21T23:44:03.316Z,-5.05
2018-03-21T23:46:31.251Z,-4.77
2018-03-21T23:48:58.891Z,-4.84
2018-03-21T23:51:26.449Z,-5.18
2018-03-21T23:53:54.115Z,-4.76
2018-03-21T23:56:21.861Z,-5.01
2018-03-21T23:58:49.418Z,-4.57
